createdAt,value
2018-06-23T00:00:19.410Z,76.26
2018-06-23T00:01:19.405Z,76.16
2018-06-23T00:02:19.397Z,77.90
2018-06-23T00:03:19.411Z,77.22
2018-06-23T00:04:19.369Z,77.63
2018-06-23T00:05:19.357Z,77.59
2018-06-23T00:06:19.338Z,77.59
2018-06-23T00:07:19.349Z,78.55
2018-06-23T00:08:19.319Z,78.14
2018-06-23T00:09:19.305Z,77.73
2018-06-23T00:10:19.302Z,78.04
2018-06-23T00:11:19.291Z,78.96
2018-06-23T00:12:19.276Z,77.83
2018-06-23T00:13:19.282Z,78.34
2018-06-23T00:14:19.251Z,78.45
2018-06-23T00:15:19.241Z,78.45
2018-06-23T00:16:19.232Z,78.04
2018-06-23T00:17:19.233Z,78.34
2018-06-23T00:18:19.252Z,78.04
2018-06-23T00:19:19.202Z,78.34
2018-06-23T00:20:19.189Z,77.63
2018-06-23T00:21:19.174Z,78.34
2018-06-23T00:22:19.176Z,78.45
2018-06-23T00:23:19.170Z,77.83
2018-06-23T00:24:19.146Z,78.55
2018-06-23T00:25:19.141Z,78.38
2018-06-23T00:26:19.120Z,78.49
2018-06-23T00:27:19.119Z,77.87
2018-06-23T00:28:19.120Z,78.17
2018-06-23T00:29:19.110Z,78.28
2018-06-23T00:30:19.086Z,78.08
2018-06-23T00:31:19.070Z,79.10
2018-06-23T00:32:19.058Z,79.00
2018-06-23T00:33:19.053Z,79.20
2018-06-23T00:34:19.043Z,79.00
2018-06-23T00:35:19.027Z,79.75
2018-06-23T00:36:19.015Z,78.59
2018-06-23T00:37:19.008Z,78.93
2018-06-23T00:38:18.992Z,80.33
2018-06-23T00:39:18.990Z,79.82
2018-06-23T00:40:18.968Z,79.03
2018-06-23T00:41:18.962Z,79.41
2018-06-23T00:42:18.953Z,78.38
2018-06-23T00:43:18.939Z,78.69
2018-06-23T00:44:18.945Z,78.49
2018-06-23T00:45:18.919Z,79.00
2018-06-23T00:46:18.902Z,78.69
2018-06-23T00:47:18.893Z,78.28
2018-06-23T00:48:18.882Z,77.76
2018-06-23T00:49:18.868Z,78.59
2018-06-23T00:50:18.880Z,77.83
2018-06-23T00:51:18.854Z,77.53
2018-06-23T00:52:18.840Z,78.45
2018-06-23T00:53:18.827Z,77.94
2018-06-23T00:54:18.821Z,77.46
2018-06-23T00:55:18.824Z,78.38
2018-06-23T00:56:18.798Z,77.63
2018-06-23T00:57:18.790Z,77.63
2018-06-23T00:58:18.773Z,78.34
2018-06-23T00:59:18.768Z,79.10
2018-06-23T01:00:18.750Z,79.00
2018-06-23T01:01:18.746Z,79.00
2018-06-23T01:02:18.738Z,80.33
2018-06-23T01:03:18.721Z,79.20
2018-06-23T01:04:18.715Z,79.75
2018-06-23T01:05:18.707Z,79.85
2018-06-23T01:06:18.696Z,80.12
2018-06-23T01:07:18.675Z,79.41
2018-06-23T01:08:18.670Z,79.61
2018-06-23T01:09:18.662Z,79.54
2018-06-23T01:10:18.639Z,79.34
2018-06-23T01:11:18.642Z,79.85
2018-06-23T01:12:18.624Z,80.26
2018-06-23T01:13:18.606Z,80.16
2018-06-23T01:14:18.602Z,79.91
2018-06-23T01:15:18.592Z,79.44
2018-06-23T01:16:18.590Z,79.03
2018-06-23T01:17:18.571Z,80.05
2018-06-23T01:18:18.555Z,80.26
2018-06-23T01:19:18.544Z,80.77
2018-06-23T01:20:18.534Z,79.75
2018-06-23T01:21:18.530Z,80.16
2018-06-23T01:22:18.518Z,79.64
2018-06-23T01:23:18.504Z,80.40
2018-06-23T01:24:18.495Z,80.51
2018-06-23T01:25:18.478Z,81.12
2018-06-23T01:26:18.484Z,79.99
2018-06-23T01:27:18.461Z,80.91
2018-06-23T01:28:18.452Z,81.43
2018-06-23T01:29:18.440Z,80.30
2018-06-23T01:30:18.421Z,80.40
2018-06-23T01:31:18.430Z,79.99
2018-06-23T01:32:18.408Z,80.51
2018-06-23T01:33:18.395Z,80.51
2018-06-23T01:34:18.385Z,80.30
2018-06-23T01:35:18.377Z,79.99
2018-06-23T01:36:18.362Z,80.60
2018-06-23T01:37:18.366Z,80.60
2018-06-23T01:38:18.335Z,81.22
2018-06-23T01:39:18.325Z,81.12
2018-06-23T01:40:18.318Z,81.52
2018-06-23T01:41:18.312Z,80.51
2018-06-23T01:42:18.306Z,81.77
2018-06-23T01:43:18.284Z,81.57
2018-06-23T01:44:18.276Z,82.18
2018-06-23T01:45:18.258Z,81.77
2018-06-23T01:46:18.256Z,82.69
2018-06-23T01:47:18.243Z,82.08
2018-06-23T01:48:18.245Z,81.26
2018-06-23T01:49:18.224Z,81.57
2018-06-23T01:50:18.203Z,82.39
2018-06-23T01:51:18.196Z,81.57
2018-06-23T01:52:18.192Z,81.57
2018-06-23T01:53:18.187Z,82.69
2018-06-23T01:54:18.166Z,81.15
2018-06-23T01:55:18.153Z,81.36
2018-06-23T01:56:18.141Z,82.69
2018-06-23T01:57:18.134Z,81.87
2018-06-23T01:58:18.130Z,82.08
2018-06-23T01:59:18.122Z,81.60
2018-06-23T02:00:18.099Z,81.36
2018-06-23T02:01:18.089Z,82.69
2018-06-23T02:02:18.071Z,82.79
2018-06-23T02:03:18.069Z,83.51
2018-06-23T02:04:18.063Z,81.26
2018-06-23T02:05:18.039Z,82.28
2018-06-23T02:06:18.046Z,82.79
2018-06-23T02:07:18.023Z,83.34
2018-06-23T02:08:18.016Z,83.34
2018-06-23T02:09:18.022Z,82.90
2018-06-23T02:10:17.984Z,83.25
2018-06-23T02:11:17.975Z,83.45
2018-06-23T02:12:17.973Z,82.12
2018-06-23T02:13:17.967Z,83.25
2018-06-23T02:14:17.944Z,83.25
2018-06-23T02:15:17.950Z,83.55
2018-06-23T02:16:17.923Z,82.73
2018-06-23T02:17:17.910Z,82.93
2018-06-23T02:18:17.905Z,84.37
2018-06-23T02:19:17.891Z,82.93
2018-06-23T02:20:17.914Z,83.25
2018-06-23T02:21:17.875Z,82.83
2018-06-23T02:22:17.851Z,82.93
2018-06-23T02:23:17.847Z,84.17
2018-06-23T02:24:17.836Z,83.45
2018-06-23T02:25:17.819Z,83.14
2018-06-23T02:26:17.830Z,83.86
2018-06-23T02:27:17.803Z,83.55
2018-06-23T02:28:17.788Z,83.04
2018-06-23T02:29:17.775Z,82.69
2018-06-23T02:30:17.774Z,83.34
2018-06-23T02:31:17.771Z,83.14
2018-06-23T02:32:17.751Z,83.86
2018-06-23T02:33:17.741Z,83.45
2018-06-23T02:34:17.720Z,83.45
2018-06-23T02:35:17.715Z,83.45
2018-06-23T02:36:17.718Z,82.90
2018-06-23T02:37:17.688Z,82.83
2018-06-23T02:38:17.696Z,83.65
2018-06-23T02:39:17.674Z,83.04
2018-06-23T02:40:17.663Z,82.79
2018-06-23T02:41:17.671Z,82.79
2018-06-23T02:42:17.637Z,83.31
2018-06-23T02:43:17.626Z,82.18
2018-06-23T02:44:17.619Z,82.90
2018-06-23T02:45:17.610Z,82.39
2018-06-23T02:46:17.590Z,82.69
2018-06-23T02:47:17.595Z,81.71
2018-06-23T02:48:17.576Z,82.59
2018-06-23T02:49:17.557Z,82.49
2018-06-23T02:50:17.556Z,82.90
2018-06-23T02:51:17.541Z,82.59
2018-06-23T02:52:17.548Z,82.39
2018-06-23T02:53:17.524Z,81.36
2018-06-23T02:54:17.506Z,81.15
2018-06-23T02:55:17.494Z,81.26
2018-06-23T02:56:17.485Z,81.67
2018-06-23T02:57:17.469Z,81.57
2018-06-23T02:58:17.484Z,81.52
2018-06-23T02:59:17.456Z,81.36
2018-06-23T03:00:17.442Z,80.81
2018-06-23T03:01:17.472Z,81.43
2018-06-23T03:02:17.472Z,81.73
2018-06-23T03:03:17.410Z,81.32
2018-06-23T03:04:17.462Z,81.22
2018-06-23T03:05:17.446Z,80.81
2018-06-23T03:06:17.374Z,81.52
2018-06-23T03:07:17.366Z,81.63
2018-06-23T03:08:17.398Z,81.67
2018-06-23T03:09:17.397Z,81.15
2018-06-23T03:10:17.343Z,81.67
2018-06-23T03:11:17.322Z,81.57
2018-06-23T03:12:17.313Z,81.87
2018-06-23T03:13:17.303Z,81.57
2018-06-23T03:14:17.298Z,81.57
2018-06-23T03:15:17.277Z,82.90
2018-06-23T03:16:17.269Z,82.28
2018-06-23T03:17:17.259Z,82.83
2018-06-23T03:18:17.247Z,83.14
2018-06-23T03:19:17.233Z,82.73
2018-06-23T03:20:17.246Z,82.22
2018-06-23T03:21:17.210Z,82.73
2018-06-23T03:22:17.208Z,83.69
2018-06-23T03:23:17.194Z,83.49
2018-06-23T03:24:17.181Z,82.77
2018-06-23T03:25:17.172Z,82.67
2018-06-23T03:26:17.169Z,82.77
2018-06-23T03:27:17.145Z,82.77
2018-06-23T03:28:17.137Z,82.67
2018-06-23T03:29:17.122Z,83.69
2018-06-23T03:30:17.117Z,83.18
2018-06-23T03:31:17.118Z,82.97
2018-06-23T03:32:17.093Z,83.90
2018-06-23T03:33:17.076Z,83.49
2018-06-23T03:34:17.073Z,83.69
2018-06-23T03:35:17.060Z,83.69
2018-06-23T03:36:17.065Z,83.73
2018-06-23T03:37:17.041Z,84.31
2018-06-23T03:38:17.025Z,83.28
2018-06-23T03:39:17.019Z,83.53
2018-06-23T03:40:17.002Z,83.59
2018-06-23T03:41:17.001Z,84.14
2018-06-23T03:42:16.985Z,84.55
2018-06-23T03:43:16.974Z,84.34
2018-06-23T03:44:16.961Z,83.94
2018-06-23T03:45:16.953Z,82.70
2018-06-23T03:46:16.957Z,83.73
2018-06-23T03:47:16.925Z,83.73
2018-06-23T03:48:16.919Z,84.45
2018-06-23T03:49:16.913Z,83.63
2018-06-23T03:50:16.891Z,84.55
2018-06-23T03:51:16.902Z,84.25
2018-06-23T03:52:16.872Z,84.25
2018-06-23T03:53:16.857Z,83.73
2018-06-23T03:54:16.854Z,84.25
2018-06-23T03:55:16.850Z,84.45
2018-06-23T03:56:16.833Z,83.63
2018-06-23T03:57:16.832Z,84.45
2018-06-23T03:58:16.808Z,84.59
2018-06-23T03:59:16.791Z,85.38
2018-06-23T04:00:16.780Z,85.31
2018-06-23T04:01:16.779Z,84.69
2018-06-23T04:02:16.782Z,84.49
2018-06-23T04:03:16.756Z,84.49
2018-06-23T04:04:16.737Z,84.59
2018-06-23T04:05:16.730Z,85.52
2018-06-23T04:06:16.721Z,83.98
2018-06-23T04:07:16.721Z,84.90
2018-06-23T04:08:16.714Z,84.90
2018-06-23T04:09:16.695Z,84.34
2018-06-23T04:10:16.675Z,83.98
2018-06-23T04:11:16.663Z,85.21
2018-06-23T04:12:16.654Z,84.04
2018-06-23T04:13:16.656Z,84.04
2018-06-23T04:14:16.639Z,85.00
2018-06-23T04:15:16.626Z,84.25
2018-06-23T04:16:16.618Z,84.25
2018-06-23T04:17:16.602Z,84.66
2018-06-23T04:18:16.606Z,84.25
2018-06-23T04:19:16.572Z,84.25
2018-06-23T04:20:16.572Z,83.83
2018-06-23T04:21:16.569Z,84.41
2018-06-23T04:22:16.543Z,83.94
2018-06-23T04:23:16.530Z,83.49
2018-06-23T04:24:16.529Z,83.80
2018-06-23T04:25:16.513Z,83.69
2018-06-23T04:26:16.506Z,83.80
2018-06-23T04:27:16.495Z,83.55
2018-06-23T04:28:16.484Z,83.07
2018-06-23T04:29:16.532Z,83.45
2018-06-23T04:30:16.468Z,83.96
2018-06-23T04:31:16.465Z,83.14
2018-06-23T04:32:16.433Z,82.93
2018-06-23T04:33:16.425Z,83.34
2018-06-23T04:34:16.426Z,82.90
2018-06-23T04:35:16.405Z,81.57
2018-06-23T04:36:16.391Z,81.87
2018-06-23T04:37:16.397Z,81.26
2018-06-23T04:38:16.370Z,82.08
2018-06-23T04:39:16.382Z,81.36
2018-06-23T04:40:16.352Z,81.36
2018-06-23T04:41:16.340Z,81.57
2018-06-23T04:42:16.325Z,81.57
2018-06-23T04:43:16.311Z,81.52
2018-06-23T04:44:16.299Z,80.95
2018-06-23T04:45:16.310Z,81.01
2018-06-23T04:46:16.286Z,80.40
2018-06-23T04:47:16.278Z,80.30
2018-06-23T04:48:16.267Z,81.12
2018-06-23T04:49:16.251Z,79.85
2018-06-23T04:50:16.253Z,78.72
2018-06-23T04:51:16.229Z,78.79
2018-06-23T04:52:16.221Z,78.38
2018-06-23T04:53:16.209Z,78.79
2018-06-23T04:54:16.199Z,78.69
2018-06-23T04:55:16.179Z,79.00
2018-06-23T04:56:16.180Z,79.00
2018-06-23T04:57:16.164Z,78.79
2018-06-23T04:58:16.156Z,78.38
2018-06-23T04:59:16.145Z,78.45
2018-06-23T05:00:16.140Z,79.27
2018-06-23T05:01:16.137Z,78.24
2018-06-23T05:02:16.108Z,78.86
2018-06-23T05:03:16.092Z,78.45
2018-06-23T05:04:16.088Z,78.45
2018-06-23T05:05:16.073Z,78.04
2018-06-23T05:06:16.082Z,77.70
2018-06-23T05:07:16.058Z,77.70
2018-06-23T05:08:16.037Z,77.90
2018-06-23T05:09:16.029Z,76.53
2018-06-23T05:10:16.021Z,76.64
2018-06-23T05:11:16.016Z,75.51
2018-06-23T05:12:16.049Z,75.68
2018-06-23T05:13:15.986Z,75.07
2018-06-23T05:14:15.973Z,75.07
2018-06-23T05:15:15.961Z,75.04
2018-06-23T05:16:15.948Z,74.42
2018-06-23T05:17:15.947Z,73.81
2018-06-23T05:18:15.944Z,72.99
2018-06-23T05:19:15.926Z,74.01
2018-06-23T05:20:15.971Z,73.57
2018-06-23T05:21:15.899Z,73.40
2018-06-23T05:22:15.885Z,73.36
2018-06-23T05:23:15.885Z,73.84
2018-06-23T05:24:15.874Z,72.65
2018-06-23T05:25:15.855Z,72.21
2018-06-23T05:26:15.847Z,72.52
2018-06-23T05:27:15.830Z,72.11
2018-06-23T05:28:15.832Z,71.80
2018-06-23T05:29:15.812Z,71.80
2018-06-23T05:30:15.804Z,71.46
2018-06-23T05:31:15.796Z,71.06
2018-06-23T05:32:15.782Z,70.95
2018-06-23T05:33:15.786Z,70.95
2018-06-23T05:34:15.759Z,70.85
2018-06-23T05:35:15.744Z,70.34
2018-06-23T05:36:15.732Z,70.14
2018-06-23T05:37:15.720Z,70.54
2018-06-23T05:38:15.712Z,71.26
2018-06-23T05:39:15.721Z,70.92
2018-06-23T05:40:15.684Z,69.39
2018-06-23T05:41:15.675Z,70.41
2018-06-23T05:42:15.667Z,69.67
2018-06-23T05:43:15.663Z,69.49
2018-06-23T05:44:15.648Z,69.19
2018-06-23T05:45:15.647Z,69.70
2018-06-23T05:46:15.623Z,69.32
2018-06-23T05:47:15.610Z,69.93
2018-06-23T05:48:15.597Z,70.54
2018-06-23T05:49:15.601Z,70.37
2018-06-23T05:50:15.583Z,70.44
2018-06-23T05:51:15.647Z,71.09
2018-06-23T05:52:15.559Z,71.39
2018-06-23T05:53:15.543Z,71.39
2018-06-23T05:54:15.532Z,71.29
2018-06-23T05:55:15.543Z,71.39
2018-06-23T05:56:15.516Z,70.37
2018-06-23T05:57:15.512Z,70.89
2018-06-23T05:58:15.527Z,71.09
2018-06-23T05:59:15.471Z,71.36
2018-06-23T06:00:15.476Z,71.06
2018-06-23T06:01:15.453Z,70.31
2018-06-23T06:02:15.445Z,69.67
2018-06-23T06:03:15.438Z,69.97
2018-06-23T06:04:15.425Z,68.44
2018-06-23T06:05:15.412Z,68.21
2018-06-23T06:06:15.411Z,67.80
2018-06-23T06:07:15.382Z,68.51
2018-06-23T06:08:15.373Z,68.01
2018-06-23T06:09:15.361Z,67.90
2018-06-23T06:10:15.354Z,68.01
2018-06-23T06:11:15.344Z,67.97
2018-06-23T06:12:15.337Z,67.87
2018-06-23T06:13:15.330Z,67.26
2018-06-23T06:14:15.311Z,67.66
2018-06-23T06:15:15.301Z,67.94
2018-06-23T06:16:15.290Z,66.72
2018-06-23T06:17:15.292Z,66.82
2018-06-23T06:18:15.262Z,66.61
2018-06-23T06:19:15.251Z,67.13
2018-06-23T06:20:15.242Z,66.44
2018-06-23T06:21:15.237Z,66.44
2018-06-23T06:22:15.225Z,66.52
2018-06-23T06:23:15.228Z,66.52
2018-06-23T06:24:15.202Z,66.58
2018-06-23T06:25:15.190Z,67.10
2018-06-23T06:26:15.177Z,66.58
2018-06-23T06:27:15.162Z,66.58
2018-06-23T06:28:15.170Z,66.25
2018-06-23T06:29:15.144Z,65.44
2018-06-23T06:30:15.135Z,65.33
2018-06-23T06:31:15.124Z,65.20
2018-06-23T06:32:15.106Z,65.00
2018-06-23T06:33:15.114Z,65.51
2018-06-23T06:34:15.090Z,64.36
2018-06-23T06:35:15.084Z,63.65
2018-06-23T06:36:15.074Z,63.65
2018-06-23T06:37:15.058Z,63.72
2018-06-23T06:38:15.043Z,63.42
2018-06-23T06:39:15.052Z,63.11
2018-06-23T06:40:15.020Z,63.08
2018-06-23T06:41:15.016Z,62.37
2018-06-23T06:42:15.002Z,62.14
2018-06-23T06:43:14.998Z,62.75
2018-06-23T06:44:14.991Z,61.63
2018-06-23T06:45:14.967Z,62.21
2018-06-23T06:46:14.958Z,60.28
2018-06-23T06:47:14.952Z,62.34
2018-06-23T06:48:15.119Z,61.46
2018-06-23T06:49:14.947Z,62.34
2018-06-23T06:50:14.910Z,62.54
2018-06-23T06:51:14.903Z,61.87
2018-06-23T06:52:14.887Z,62.48
2018-06-23T06:53:14.877Z,62.07
2018-06-23T06:54:14.872Z,61.49
2018-06-23T06:55:14.876Z,62.23
2018-06-23T06:56:14.852Z,63.14
2018-06-23T06:57:14.894Z,62.74
2018-06-23T06:58:14.829Z,62.71
2018-06-23T06:59:14.808Z,61.99
2018-06-23T07:00:14.822Z,62.48
2018-06-23T07:01:14.797Z,61.83
2018-06-23T07:02:14.789Z,61.33
2018-06-23T07:03:14.770Z,61.30
2018-06-23T07:04:14.754Z,59.38
2018-06-23T07:05:14.759Z,59.78
2018-06-23T07:06:14.748Z,61.10
2018-06-23T07:07:14.731Z,59.99
2018-06-23T07:08:14.720Z,59.45
2018-06-23T07:09:14.706Z,60.26
2018-06-23T07:10:14.710Z,59.65
2018-06-23T07:11:14.681Z,59.14
2018-06-23T07:12:14.667Z,59.34
2018-06-23T07:13:14.661Z,60.46
2018-06-23T07:14:14.656Z,60.08
2018-06-23T07:15:14.644Z,60.28
2018-06-23T07:16:14.643Z,61.10
2018-06-23T07:17:14.616Z,60.21
2018-06-23T07:18:14.606Z,61.74
2018-06-23T07:19:14.599Z,62.45
2018-06-23T07:20:14.592Z,62.57
2018-06-23T07:21:14.591Z,62.78
2018-06-23T07:22:14.563Z,63.08
2018-06-23T07:23:14.555Z,62.95
2018-06-23T07:24:14.612Z,62.54
2018-06-23T07:25:14.528Z,62.75
2018-06-23T07:26:14.519Z,62.98
2018-06-23T07:27:14.526Z,62.48
2018-06-23T07:28:14.560Z,62.78
2018-06-23T07:29:14.487Z,62.27
2018-06-23T07:30:14.476Z,62.30
2018-06-23T07:31:14.460Z,63.04
2018-06-23T07:32:14.475Z,63.85
2018-06-23T07:33:14.443Z,63.45
2018-06-23T07:34:14.464Z,62.91
2018-06-23T07:35:14.558Z,61.90
2018-06-23T07:36:14.403Z,62.51
2018-06-23T07:37:14.401Z,62.63
2018-06-23T07:38:14.402Z,61.59
2018-06-23T07:39:14.381Z,62.63
2018-06-23T07:40:14.368Z,62.40
2018-06-23T08:14:52.532Z,47.13
2018-06-23T08:15:52.511Z,47.15
2018-06-23T08:16:52.511Z,50.26
2018-06-23T08:17:52.496Z,48.75
2018-06-23T08:18:52.480Z,48.47
2018-06-23T08:19:52.476Z,51.09
2018-06-23T08:20:52.477Z,50.40
2018-06-23T08:21:52.453Z,52.06
2018-06-23T08:22:52.455Z,51.66
2018-06-23T08:23:52.429Z,52.84
2018-06-23T08:24:52.434Z,54.16
2018-06-23T08:25:52.400Z,53.27
2018-06-23T08:26:52.390Z,53.30
2018-06-23T08:27:52.381Z,54.18
2018-06-23T08:28:52.460Z,53.45
2018-06-23T08:29:52.377Z,54.05
2018-06-23T08:30:52.351Z,52.54
2018-06-23T08:31:52.406Z,54.10
2018-06-23T08:32:52.352Z,54.81
2018-06-23T08:33:52.314Z,54.10
2018-06-23T08:34:52.308Z,53.70
2018-06-23T08:35:52.295Z,54.21
2018-06-23T08:36:52.295Z,54.21
2018-06-23T08:37:52.308Z,54.74
2018-06-23T08:38:52.269Z,53.93
2018-06-23T08:39:52.252Z,53.93
2018-06-23T08:40:52.235Z,54.94
2018-06-23T08:41:52.241Z,54.63
2018-06-23T08:42:52.228Z,56.27
2018-06-23T08:43:52.259Z,56.48
2018-06-23T08:44:52.212Z,56.07
2018-06-23T08:45:52.186Z,56.71
2018-06-23T08:46:52.180Z,56.58
2018-06-23T08:47:52.210Z,56.78
2018-06-23T08:48:52.161Z,56.38
2018-06-23T08:49:52.156Z,56.27
2018-06-23T08:50:52.136Z,55.74
2018-06-23T08:51:52.123Z,57.31
2018-06-23T08:52:52.103Z,57.01
2018-06-23T08:53:52.131Z,57.34
2018-06-23T08:54:52.106Z,57.34
2018-06-23T08:55:52.078Z,57.21
2018-06-23T08:56:52.151Z,57.01
2018-06-23T08:57:52.050Z,57.39
2018-06-23T08:58:52.045Z,57.62
2018-06-23T08:59:52.042Z,57.31
2018-06-23T09:00:52.038Z,57.11
2018-06-23T09:01:52.051Z,57.31
2018-06-23T09:02:52.040Z,57.42
2018-06-23T09:03:52.000Z,57.54
2018-06-23T09:04:52.014Z,57.72
2018-06-23T09:05:51.971Z,57.82
2018-06-23T09:06:51.959Z,59.27
2018-06-23T09:07:51.952Z,59.47
2018-06-23T09:08:51.941Z,58.65
2018-06-23T09:09:51.917Z,59.19
2018-06-23T09:10:51.937Z,59.09
2018-06-23T09:11:51.897Z,59.19
2018-06-23T09:12:51.884Z,60.23
2018-06-23T09:13:51.911Z,60.53
2018-06-23T09:14:51.983Z,60.50
2018-06-23T09:15:51.861Z,60.81
2018-06-23T09:16:51.916Z,61.04
2018-06-23T09:17:51.832Z,61.24
2018-06-23T09:18:51.823Z,62.29
2018-06-23T09:19:51.831Z,62.69
2018-06-23T09:20:51.796Z,62.92
2018-06-23T09:21:51.811Z,63.53
2018-06-23T09:22:51.799Z,63.96
2018-06-23T09:23:51.769Z,65.01
2018-06-23T09:24:51.767Z,66.23
2018-06-23T09:25:51.788Z,65.52
2018-06-23T09:26:51.759Z,65.92
2018-06-23T09:27:51.727Z,65.52
2018-06-23T09:28:51.718Z,65.01
2018-06-23T09:29:51.697Z,65.39
2018-06-23T09:30:51.691Z,64.85
2018-06-23T09:31:51.695Z,63.81
2018-06-23T09:32:51.676Z,62.81
2018-06-23T09:33:51.663Z,61.56
2018-06-23T09:34:51.649Z,61.87
2018-06-23T09:35:51.648Z,61.16
2018-06-23T09:36:51.632Z,61.33
2018-06-23T09:37:51.640Z,59.45
2018-06-23T09:38:51.608Z,57.94
2018-06-23T09:39:51.598Z,59.25
2018-06-23T09:40:51.597Z,57.91
2018-06-23T09:41:51.575Z,58.42
2018-06-23T09:42:51.570Z,57.78
2018-06-23T09:43:51.558Z,57.31
2018-06-23T09:44:51.535Z,57.48
2018-06-23T09:45:51.554Z,57.38
2018-06-23T09:46:51.521Z,56.77
2018-06-23T09:47:51.513Z,57.08
2018-06-23T09:48:51.518Z,54.93
2018-06-23T09:49:51.547Z,53.37
2018-06-23T09:50:51.488Z,53.90
2018-06-23T09:51:51.462Z,52.87
2018-06-23T09:52:51.458Z,53.92
2018-06-23T09:53:51.468Z,51.67
2018-06-23T09:54:51.466Z,46.69
2018-06-23T09:55:51.430Z,46.53
2018-06-23T09:56:51.407Z,43.67
2018-06-23T09:57:51.400Z,43.77
2018-06-23T09:58:51.430Z,44.27
2018-06-23T09:59:51.413Z,43.93
2018-06-23T10:00:51.377Z,41.42
2018-06-23T10:01:51.386Z,36.72
2018-06-23T10:02:51.353Z,34.69
2018-06-23T10:03:51.331Z,35.83
2018-06-23T10:04:51.382Z,36.73
2018-06-23T10:05:51.328Z,38.91
2018-06-23T10:06:51.308Z,35.22
2018-06-23T10:07:51.301Z,34.72
2018-06-23T10:08:51.284Z,33.28
2018-06-23T10:09:51.278Z,35.12
2018-06-23T10:10:51.355Z,35.78
2018-06-23T10:11:51.254Z,38.70
2018-06-23T10:12:51.242Z,36.33
2018-06-23T10:13:51.233Z,34.51
2018-06-23T10:14:51.220Z,35.89
2018-06-23T10:15:51.226Z,36.05
2018-06-23T10:16:51.201Z,38.46
2018-06-23T10:17:51.193Z,38.02
2018-06-23T10:18:51.204Z,39.09
2018-06-23T10:19:51.181Z,39.16
2018-06-23T10:20:51.157Z,43.33
2018-06-23T10:21:51.162Z,44.62
2018-06-23T10:22:51.133Z,45.24
2018-06-23T10:23:51.120Z,47.08
2018-06-23T10:24:51.113Z,47.73
2018-06-23T10:25:51.112Z,46.65
2018-06-23T10:26:51.120Z,49.30
2018-06-23T10:27:51.081Z,50.23
2018-06-23T10:28:51.128Z,50.03
2018-06-23T10:29:51.062Z,51.18
2018-06-23T10:30:51.057Z,51.89
2018-06-23T10:31:51.045Z,52.01
2018-06-23T10:32:51.049Z,51.86
2018-06-23T10:33:51.015Z,54.16
2018-06-23T10:34:51.056Z,56.27
2018-06-23T10:35:51.004Z,55.59
2018-06-23T10:36:50.988Z,56.83
2018-06-23T10:37:50.991Z,56.32
2018-06-23T10:38:50.969Z,56.23
2018-06-23T10:39:50.967Z,55.62
2018-06-23T10:40:50.957Z,56.30
2018-06-23T10:41:50.930Z,55.57
2018-06-23T10:42:50.923Z,54.63
2018-06-23T10:43:50.931Z,53.00
2018-06-23T10:44:50.906Z,53.34
2018-06-23T10:45:50.889Z,52.54
2018-06-23T10:46:50.875Z,52.42
2018-06-23T10:47:50.926Z,51.99
2018-06-23T10:48:50.864Z,52.49
2018-06-23T10:49:50.848Z,52.92
2018-06-23T10:50:50.837Z,52.42
2018-06-23T10:51:50.825Z,51.73
2018-06-23T10:52:50.818Z,52.24
2018-06-23T10:53:50.811Z,53.38
2018-06-23T10:54:50.784Z,53.09
2018-06-23T10:55:50.777Z,54.46
2018-06-23T10:56:50.789Z,55.82
2018-06-23T10:57:50.771Z,56.63
2018-06-23T10:58:50.747Z,56.63
2018-06-23T10:59:50.749Z,56.32
2018-06-23T11:00:50.722Z,57.26
2018-06-23T11:01:50.721Z,56.56
2018-06-23T11:02:50.710Z,57.36
2018-06-23T11:03:50.739Z,57.26
2018-06-23T11:04:50.835Z,57.97
2018-06-23T11:05:50.681Z,57.16
2018-06-23T11:06:50.653Z,56.76
2018-06-23T11:07:50.645Z,57.36
2018-06-23T11:08:50.647Z,56.76
2018-06-23T11:09:50.629Z,57.62
2018-06-23T11:10:50.633Z,57.72
2018-06-23T11:11:50.611Z,58.25
2018-06-23T11:12:50.652Z,58.25
2018-06-23T11:13:50.581Z,59.29
2018-06-23T11:14:50.572Z,59.29
2018-06-23T11:15:50.595Z,58.78
2018-06-23T11:16:50.549Z,60.33
2018-06-23T11:17:50.567Z,60.94
2018-06-23T11:18:50.523Z,59.83
2018-06-23T11:19:50.525Z,60.20
2018-06-23T11:20:50.533Z,59.36
2018-06-23T11:21:50.498Z,57.92
2018-06-23T11:22:50.488Z,57.76
2018-06-23T11:23:50.474Z,56.10
2018-06-23T11:24:50.467Z,56.07
2018-06-23T11:25:50.523Z,56.24
2018-06-23T11:26:50.476Z,54.00
2018-06-23T11:27:50.424Z,54.41
2018-06-23T11:28:50.414Z,53.67
2018-06-23T11:29:50.444Z,53.60
2018-06-23T11:30:50.409Z,53.90
2018-06-23T11:31:50.387Z,54.33
2018-06-23T11:32:50.386Z,54.56
2018-06-23T11:33:50.367Z,55.06
2018-06-23T11:34:50.356Z,56.02
2018-06-23T11:35:50.397Z,56.73
2018-06-23T11:36:50.334Z,56.23
2018-06-23T11:37:50.341Z,56.02
2018-06-23T11:38:50.307Z,56.35
2018-06-23T11:39:50.302Z,56.76
2018-06-23T11:40:50.292Z,57.06
2018-06-23T11:41:50.281Z,57.26
2018-06-23T11:42:50.286Z,57.52
2018-06-23T11:43:50.262Z,58.40
2018-06-23T11:44:50.250Z,59.03
2018-06-23T11:45:50.234Z,59.34
2018-06-23T11:46:50.250Z,59.94
2018-06-23T11:47:50.229Z,59.67
2018-06-23T11:48:50.214Z,59.54
2018-06-23T11:49:50.193Z,59.14
2018-06-23T11:50:50.205Z,59.71
2018-06-23T11:51:50.163Z,58.98
2018-06-23T11:52:50.175Z,58.04
2018-06-23T11:53:50.150Z,57.03
2018-06-23T11:54:50.141Z,56.70
2018-06-23T11:55:50.129Z,56.50
2018-06-23T11:56:50.118Z,56.68
2018-06-23T11:57:50.116Z,56.15
2018-06-23T11:58:50.095Z,55.41
2018-06-23T11:59:50.128Z,55.49
2018-06-23T12:00:50.067Z,54.96
2018-06-23T12:01:50.069Z,54.46
2018-06-23T12:02:50.062Z,54.79
2018-06-23T12:03:50.051Z,53.85
2018-06-23T12:04:50.024Z,52.31
2018-06-23T12:05:50.041Z,52.62
2018-06-23T12:06:50.011Z,53.45
2018-06-23T12:07:49.998Z,52.89
2018-06-23T12:08:49.982Z,53.07
2018-06-23T12:09:49.984Z,51.94
2018-06-23T12:10:49.976Z,51.84
2018-06-23T12:11:49.945Z,51.44
2018-06-23T12:12:49.937Z,51.84
2018-06-23T12:13:49.932Z,51.89
2018-06-23T12:14:49.936Z,53.63
2018-06-23T12:15:49.910Z,53.45
2018-06-23T12:16:49.902Z,53.25
2018-06-23T12:17:49.897Z,54.30
2018-06-23T12:18:49.869Z,55.04
2018-06-23T12:19:49.881Z,55.46
2018-06-23T12:20:49.853Z,56.20
2018-06-23T12:21:49.838Z,56.70
2018-06-23T12:22:49.856Z,56.83
2018-06-23T12:23:49.814Z,57.49
2018-06-23T12:24:49.838Z,58.70
2018-06-23T12:25:49.813Z,59.21
2018-06-23T12:26:49.795Z,59.44
2018-06-23T12:27:49.781Z,60.38
2018-06-23T12:28:49.767Z,60.25
2018-06-23T12:29:49.775Z,59.74
2018-06-23T12:30:49.753Z,60.22
2018-06-23T12:31:49.736Z,59.51
2018-06-23T12:32:49.732Z,57.97
2018-06-23T12:33:49.708Z,58.01
2018-06-23T12:34:49.705Z,56.60
2018-06-23T12:35:49.693Z,57.28
2018-06-23T12:36:49.692Z,56.20
2018-06-23T12:37:49.666Z,57.31
2018-06-23T12:38:49.666Z,56.30
2018-06-23T12:39:49.645Z,57.03
2018-06-23T12:40:49.633Z,58.34
2018-06-23T12:41:49.664Z,57.23
2018-06-23T12:42:49.605Z,57.23
2018-06-23T12:43:49.597Z,57.03
2018-06-23T12:44:49.591Z,57.43
2018-06-23T12:45:49.580Z,57.31
2018-06-23T12:46:49.573Z,56.20
2018-06-23T12:47:49.575Z,57.43
2018-06-23T12:48:49.545Z,57.43
2018-06-23T12:49:49.531Z,57.41
2018-06-23T12:50:49.518Z,57.78
2018-06-23T12:51:49.529Z,57.18
2018-06-23T12:52:49.503Z,57.15
2018-06-23T12:53:49.504Z,56.37
2018-06-23T12:54:49.472Z,56.17
2018-06-23T12:55:49.461Z,56.98
2018-06-23T12:56:49.458Z,57.34
2018-06-23T12:57:49.448Z,58.42
2018-06-23T12:58:49.438Z,58.62
2018-06-23T12:59:49.439Z,58.42
2018-06-23T13:00:49.411Z,58.22
2018-06-23T13:01:49.412Z,57.41
2018-06-23T13:02:49.385Z,58.14
2018-06-23T13:03:49.373Z,58.85
2018-06-23T13:04:49.406Z,58.78
2018-06-23T13:05:49.359Z,58.98
2018-06-23T13:06:49.349Z,59.11
2018-06-23T13:07:49.330Z,59.00
2018-06-23T13:08:49.322Z,60.62
2018-06-23T13:09:49.327Z,60.65
2018-06-23T13:10:49.309Z,59.51
2018-06-23T13:11:49.294Z,60.14
2018-06-23T13:12:49.280Z,59.71
2018-06-23T13:13:49.270Z,59.51
2018-06-23T13:14:49.252Z,58.87
2018-06-23T13:15:49.255Z,59.71
2018-06-23T13:16:49.243Z,59.38
2018-06-23T13:17:49.227Z,59.11
2018-06-23T13:18:49.231Z,60.14
2018-06-23T13:19:49.214Z,60.75
2018-06-23T13:20:49.207Z,62.27
2018-06-23T13:21:49.178Z,60.72
2018-06-23T13:22:49.169Z,60.52
2018-06-23T13:23:49.174Z,60.39
2018-06-23T13:24:49.174Z,59.61
2018-06-23T13:25:49.135Z,59.51